sensor_id;sensor_type;location;lat;lon;timestamp;P1;durP1;ratioP1;P2;durP2;ratioP2
5343;SDS011;2694;48.950;8.970;2022-11-11T00:00:57;15.10;;;7.03;;
5343;SDS011;2694;48.950;8.970;2022-11-11T00:03:25;13.83;;;7.70;;
5343;SDS011;2694;48.950;8.970;2022-11-11T00:05:52;14.52;;;7.50;;
5343;SDS011;2694;48.950;8.970;2022-11-11T00:08:21;14.43;;;7.22;;
5343;SDS011;2694;48.950;8.970;2022-11-11T00:10:48;19.73;;;7.93;;
5343;SDS011;2694;48.950;8.970;2022-11-11T00:13:16;13.07;;;7.30;;
5343;SDS011;2694;48.950;8.970;2022-11-11T00:15:43;11.00;;;6.40;;
5343;SDS011;2694;48.950;8.970;2022-11-11T00:18:13;11.82;;;6.78;;
5343;SDS011;2694;48.950;8.970;2022-11-11T00:20:58;17.55;;;6.93;;
5343;SDS011;2694;48.950;8.970;2022-11-11T00:23:44;14.60;;;6.50;;
5343;SDS011;2694;48.950;8.970;2022-11-11T00:26:28;12.35;;;6.82;;
5343;SDS011;2694;48.950;8.970;2022-11-11T00:28:55;16.80;;;7.50;;
5343;SDS011;2694;48.950;8.970;2022-11-11T00:31:23;12.30;;;7.32;;
5343;SDS011;2694;48.950;8.970;2022-11-11T00:33:51;18.55;;;7.28;;
5343;SDS011;2694;48.950;8.970;2022-11-11T00:36:19;16.00;;;6.70;;
5343;SDS011;2694;48.950;8.970;2022-11-11T00:38:46;15.50;;;7.03;;
5343;SDS011;2694;48.950;8.970;2022-11-11T00:41:14;13.38;;;6.90;;
5343;SDS011;2694;48.950;8.970;2022-11-11T00:43:45;15.23;;;7.60;;
5343;SDS011;2694;48.950;8.970;2022-11-11T00:46:14;15.40;;;7.32;;
5343;SDS011;2694;48.950;8.970;2022-11-11T00:48:59;15.07;;;6.50;;
5343;SDS011;2694;48.950;8.970;2022-11-11T00:51:43;14.02;;;6.97;;
5343;SDS011;2694;48.950;8.970;2022-11-11T00:54:13;11.32;;;6.68;;
5343;SDS011;2694;48.950;8.970;2022-11-11T00:56:40;24.38;;;7.55;;
5343;SDS011;2694;48.950;8.970;2022-11-11T00:59:07;10.53;;;6.20;;
5343;SDS011;2694;48.950;8.970;2022-11-11T01:01:35;12.48;;;6.10;;
5343;SDS011;2694;48.950;8.970;2022-11-11T01:04:03;10.38;;;6.20;;
5343;SDS011;2694;48.950;8.970;2022-11-11T01:06:31;7.17;;;5.00;;
5343;SDS011;2694;48.950;8.970;2022-11-11T01:09:00;10.10;;;5.85;;
5343;SDS011;2694;48.950;8.970;2022-11-11T01:11:32;9.87;;;5.70;;
5343;SDS011;2694;48.950;8.970;2022-11-11T01:13:59;12.70;;;5.57;;
5343;SDS011;2694;48.950;8.970;2022-11-11T01:16:27;11.27;;;5.50;;
5343;SDS011;2694;48.950;8.970;2022-11-11T01:18:54;7.82;;;5.25;;
5343;SDS011;2694;48.950;8.970;2022-11-11T01:21:23;6.78;;;4.43;;
5343;SDS011;2694;48.950;8.970;2022-11-11T01:23:52;10.88;;;5.30;;
5343;SDS011;2694;48.950;8.970;2022-11-11T01:26:20;8.30;;;5.50;;
5343;SDS011;2694;48.950;8.970;2022-11-11T01:28:51;8.43;;;5.40;;
5343;SDS011;2694;48.950;8.970;2022-11-11T01:31:20;9.63;;;5.65;;
5343;SDS011;2694;48.950;8.970;2022-11-11T01:33:49;8.70;;;5.28;;
5343;SDS011;2694;48.950;8.970;2022-11-11T01:36:17;10.15;;;4.95;;
5343;SDS011;2694;48.950;8.970;2022-11-11T01:38:47;7.43;;;5.07;;
5343;SDS011;2694;48.950;8.970;2022-11-11T01:41:17;6.20;;;4.70;;
5343;SDS011;2694;48.950;8.970;2022-11-11T01:44:02;7.10;;;4.70;;
5343;SDS011;2694;48.950;8.970;2022-11-11T01:46:46;5.45;;;4.70;;
5343;SDS011;2694;48.950;8.970;2022-11-11T01:49:18;7.03;;;4.70;;
5343;SDS011;2694;48.950;8.970;2022-11-11T01:51:52;9.50;;;5.00;;
5343;SDS011;2694;48.950;8.970;2022-11-11T01:54:27;7.32;;;4.55;;
5343;SDS011;2694;48.950;8.970;2022-11-11T01:56:59;7.50;;;4.22;;
5343;SDS011;2694;48.950;8.970;2022-11-11T01:59:31;8.20;;;4.93;;
5343;SDS011;2694;48.950;8.970;2022-11-11T02:02:02;9.38;;;4.90;;
5343;SDS011;2694;48.950;8.970;2022-11-11T02:04:35;6.57;;;4.55;;
5343;SDS011;2694;48.950;8.970;2022-11-11T02:07:20;7.75;;;5.10;;
5343;SDS011;2694;48.950;8.970;2022-11-11T02:09:49;8.32;;;4.63;;
5343;SDS011;2694;48.950;8.970;2022-11-11T02:12:18;6.03;;;4.35;;
5343;SDS011;2694;48.950;8.970;2022-11-11T02:15:05;10.10;;;4.88;;
5343;SDS011;2694;48.950;8.970;2022-11-11T02:17:33;8.82;;;4.50;;
5343;SDS011;2694;48.950;8.970;2022-11-11T02:20:01;6.80;;;4.82;;
5343;SDS011;2694;48.950;8.970;2022-11-11T02:22:33;9.65;;;5.13;;
5343;SDS011;2694;48.950;8.970;2022-11-11T02:25:07;8.05;;;4.80;;
5343;SDS011;2694;48.950;8.970;2022-11-11T02:27:39;7.60;;;4.50;;
5343;SDS011;2694;48.950;8.970;2022-11-11T02:30:11;9.43;;;4.88;;
5343;SDS011;2694;48.950;8.970;2022-11-11T02:32:41;10.57;;;4.97;;
5343;SDS011;2694;48.950;8.970;2022-11-11T02:35:11;10.15;;;5.13;;
5343;SDS011;2694;48.950;8.970;2022-11-11T02:37:41;9.60;;;4.60;;
5343;SDS011;2694;48.950;8.970;2022-11-11T02:40:13;10.23;;;5.55;;
5343;SDS011;2694;48.950;8.970;2022-11-11T02:42:44;8.48;;;4.93;;
5343;SDS011;2694;48.950;8.970;2022-11-11T02:45:11;7.05;;;4.35;;
5343;SDS011;2694;48.950;8.970;2022-11-11T02:47:38;6.97;;;4.70;;
5343;SDS011;2694;48.950;8.970;2022-11-11T02:50:06;9.75;;;5.05;;
5343;SDS011;2694;48.950;8.970;2022-11-11T02:52:34;8.57;;;5.10;;
5343;SDS011;2694;48.950;8.970;2022-11-11T02:55:02;9.77;;;5.20;;
5343;SDS011;2694;48.950;8.970;2022-11-11T02:57:32;8.18;;;4.90;;
5343;SDS011;2694;48.950;8.970;2022-11-11T02:59:59;10.30;;;4.93;;
5343;SDS011;2694;48.950;8.970;2022-11-11T03:02:27;9.53;;;4.93;;
5343;SDS011;2694;48.950;8.970;2022-11-11T03:04:55;7.15;;;5.43;;
5343;SDS011;2694;48.950;8.970;2022-11-11T03:07:24;9.73;;;4.78;;
5343;SDS011;2694;48.950;8.970;2022-11-11T03:09:51;7.50;;;4.75;;
5343;SDS011;2694;48.950;8.970;2022-11-11T03:12:19;8.70;;;4.80;;
5343;SDS011;2694;48.950;8.970;2022-11-11T03:14:48;7.63;;;4.60;;
5343;SDS011;2694;48.950;8.970;2022-11-11T03:17:15;8.35;;;4.07;;
5343;SDS011;2694;48.950;8.970;2022-11-11T03:19:59;8.50;;;4.20;;
5343;SDS011;2694;48.950;8.970;2022-11-11T03:22:40;11.35;;;4.72;;
5343;SDS011;2694;48.950;8.970;2022-11-11T03:25:07;8.77;;;4.60;;
5343;SDS011;2694;48.950;8.970;2022-11-11T03:27:52;8.30;;;4.30;;
5343;SDS011;2694;48.950;8.970;2022-11-11T03:30:21;9.07;;;4.20;;
5343;SDS011;2694;48.950;8.970;2022-11-11T03:32:49;7.45;;;4.65;;
5343;SDS011;2694;48.950;8.970;2022-11-11T03:35:18;9.65;;;4.80;;
5343;SDS011;2694;48.950;8.970;2022-11-11T03:37:45;8.60;;;4.20;;
5343;SDS011;2694;48.950;8.970;2022-11-11T03:40:35;4.93;;;4.07;;
5343;SDS011;2694;48.950;8.970;2022-11-11T03:43:03;7.75;;;4.03;;
5343;SDS011;2694;48.950;8.970;2022-11-11T03:45:33;8.02;;;4.47;;
5343;SDS011;2694;48.950;8.970;2022-11-11T03:48:00;7.60;;;4.10;;
5343;SDS011;2694;48.950;8.970;2022-11-11T03:50:27;7.35;;;4.30;;
5343;SDS011;2694;48.950;8.970;2022-11-11T03:52:54;6.40;;;3.70;;
5343;SDS011;2694;48.950;8.970;2022-11-11T03:55:22;7.20;;;4.70;;
5343;SDS011;2694;48.950;8.970;2022-11-11T03:57:49;5.95;;;4.00;;
5343;SDS011;2694;48.950;8.970;2022-11-11T04:00:17;6.70;;;4.20;;
5343;SDS011;2694;48.950;8.970;2022-11-11T04:02:47;7.30;;;4.40;;
5343;SDS011;2694;48.950;8.970;2022-11-11T04:05:32;6.80;;;4.10;;
5343;SDS011;2694;48.950;8.970;2022-11-11T04:08:17;9.20;;;4.55;;
5343;SDS011;2694;48.950;8.970;2022-11-11T04:11:02;9.60;;;4.10;;
5343;SDS011;2694;48.950;8.970;2022-11-11T04:13:33;7.30;;;3.90;;
5343;SDS011;2694;48.950;8.970;2022-11-11T04:16:18;7.28;;;4.30;;
5343;SDS011;2694;48.950;8.970;2022-11-11T04:18:48;10.63;;;4.50;;
5343;SDS011;2694;48.950;8.970;2022-11-11T04:21:32;10.43;;;4.55;;
5343;SDS011;2694;48.950;8.970;2022-11-11T04:24:09;10.18;;;5.10;;
5343;SDS011;2694;48.950;8.970;2022-11-11T04:26:55;6.57;;;4.05;;
5343;SDS011;2694;48.950;8.970;2022-11-11T04:29:24;6.93;;;4.32;;
5343;SDS011;2694;48.950;8.970;2022-11-11T04:31:52;8.00;;;4.77;;
5343;SDS011;2694;48.950;8.970;2022-11-11T04:34:39;7.97;;;4.70;;
5343;SDS011;2694;48.950;8.970;2022-11-11T04:37:06;7.55;;;4.63;;
5343;SDS011;2694;48.950;8.970;2022-11-11T04:39:34;7.65;;;5.20;;
5343;SDS011;2694;48.950;8.970;2022-11-11T04:42:18;9.73;;;5.38;;
5343;SDS011;2694;48.950;8.970;2022-11-11T04:44:45;9.63;;;4.75;;
5343;SDS011;2694;48.950;8.970;2022-11-11T04:47:30;6.80;;;4.63;;
5343;SDS011;2694;48.950;8.970;2022-11-11T04:49:59;9.18;;;4.43;;
5343;SDS011;2694;48.950;8.970;2022-11-11T04:52:26;7.75;;;5.10;;
5343;SDS011;2694;48.950;8.970;2022-11-11T04:54:54;7.57;;;4.53;;
5343;SDS011;2694;48.950;8.970;2022-11-11T04:57:39;7.82;;;4.40;;
5343;SDS011;2694;48.950;8.970;2022-11-11T05:00:08;8.20;;;4.10;;
5343;SDS011;2694;48.950;8.970;2022-11-11T05:02:38;6.40;;;4.00;;
5343;SDS011;2694;48.950;8.970;2022-11-11T05:05:24;10.30;;;4.10;;
5343;SDS011;2694;48.950;8.970;2022-11-11T05:07:53;11.18;;;4.60;;
5343;SDS011;2694;48.950;8.970;2022-11-11T05:10:38;8.88;;;5.05;;
5343;SDS011;2694;48.950;8.970;2022-11-11T05:13:05;10.02;;;4.75;;
5343;SDS011;2694;48.950;8.970;2022-11-11T05:15:49;10.20;;;4.68;;
5343;SDS011;2694;48.950;8.970;2022-11-11T05:18:34;10.50;;;5.57;;
5343;SDS011;2694;48.950;8.970;2022-11-11T05:21:21;11.38;;;5.88;;
5343;SDS011;2694;48.950;8.970;2022-11-11T05:23:51;10.02;;;6.07;;
5343;SDS011;2694;48.950;8.970;2022-11-11T05:26:35;10.60;;;5.88;;
5343;SDS011;2694;48.950;8.970;2022-11-11T05:29:02;10.95;;;5.20;;
5343;SDS011;2694;48.950;8.970;2022-11-11T05:31:31;10.60;;;5.63;;
5343;SDS011;2694;48.950;8.970;2022-11-11T05:33:59;20.73;;;6.55;;
5343;SDS011;2694;48.950;8.970;2022-11-11T05:36:28;9.15;;;5.35;;
5343;SDS011;2694;48.950;8.970;2022-11-11T05:38:55;15.70;;;5.72;;
5343;SDS011;2694;48.950;8.970;2022-11-11T05:41:23;12.23;;;5.80;;
5343;SDS011;2694;48.950;8.970;2022-11-11T05:43:50;12.23;;;6.40;;
5343;SDS011;2694;48.950;8.970;2022-11-11T05:46:17;12.10;;;6.95;;
5343;SDS011;2694;48.950;8.970;2022-11-11T05:48:44;14.20;;;7.13;;
5343;SDS011;2694;48.950;8.970;2022-11-11T05:51:25;19.25;;;8.20;;
5343;SDS011;2694;48.950;8.970;2022-11-11T05:53:57;19.50;;;8.20;;
5343;SDS011;2694;48.950;8.970;2022-11-11T05:56:24;18.92;;;7.75;;
5343;SDS011;2694;48.950;8.970;2022-11-11T05:58:51;17.70;;;7.57;;
5343;SDS011;2694;48.950;8.970;2022-11-11T06:01:18;17.33;;;8.00;;
5343;SDS011;2694;48.950;8.970;2022-11-11T06:03:45;20.42;;;8.60;;
5343;SDS011;2694;48.950;8.970;2022-11-11T06:06:12;21.10;;;7.78;;
5343;SDS011;2694;48.950;8.970;2022-11-11T06:08:40;17.88;;;8.40;;
5343;SDS011;2694;48.950;8.970;2022-11-11T06:11:12;21.20;;;8.80;;
5343;SDS011;2694;48.950;8.970;2022-11-11T06:13:39;18.42;;;8.65;;
5343;SDS011;2694;48.950;8.970;2022-11-11T06:16:07;20.23;;;8.70;;
5343;SDS011;2694;48.950;8.970;2022-11-11T06:18:34;17.25;;;7.60;;
5343;SDS011;2694;48.950;8.970;2022-11-11T06:21:02;13.40;;;6.70;;
5343;SDS011;2694;48.950;8.970;2022-11-11T06:23:30;17.00;;;7.03;;
5343;SDS011;2694;48.950;8.970;2022-11-11T06:25:59;11.27;;;6.95;;
5343;SDS011;2694;48.950;8.970;2022-11-11T06:28:41;13.75;;;7.10;;
5343;SDS011;2694;48.950;8.970;2022-11-11T06:31:10;14.90;;;7.75;;
5343;SDS011;2694;48.950;8.970;2022-11-11T06:33:39;13.90;;;7.20;;
5343;SDS011;2694;48.950;8.970;2022-11-11T06:36:07;12.38;;;7.47;;
5343;SDS011;2694;48.950;8.970;2022-11-11T06:38:37;14.30;;;7.07;;
5343;SDS011;2694;48.950;8.970;2022-11-11T06:41:06;16.10;;;7.57;;
5343;SDS011;2694;48.950;8.970;2022-11-11T06:43:34;15.90;;;7.83;;
5343;SDS011;2694;48.950;8.970;2022-11-11T06:46:03;14.20;;;7.53;;
5343;SDS011;2694;48.950;8.970;2022-11-11T06:48:30;14.43;;;7.38;;
5343;SDS011;2694;48.950;8.970;2022-11-11T06:51:00;16.95;;;7.78;;
5343;SDS011;2694;48.950;8.970;2022-11-11T06:53:29;11.57;;;6.88;;
5343;SDS011;2694;48.950;8.970;2022-11-11T06:55:56;13.07;;;7.55;;
5343;SDS011;2694;48.950;8.970;2022-11-11T06:58:23;17.45;;;7.30;;
5343;SDS011;2694;48.950;8.970;2022-11-11T07:00:51;13.45;;;7.05;;
5343;SDS011;2694;48.950;8.970;2022-11-11T07:03:20;12.05;;;6.35;;
5343;SDS011;2694;48.950;8.970;2022-11-11T07:05:47;11.82;;;6.68;;
5343;SDS011;2694;48.950;8.970;2022-11-11T07:08:15;12.25;;;6.32;;
5343;SDS011;2694;48.950;8.970;2022-11-11T07:10:44;14.13;;;6.90;;
5343;SDS011;2694;48.950;8.970;2022-11-11T07:13:14;16.35;;;7.43;;
5343;SDS011;2694;48.950;8.970;2022-11-11T07:15:41;11.60;;;6.95;;
5343;SDS011;2694;48.950;8.970;2022-11-11T07:18:09;14.98;;;8.88;;
5343;SDS011;2694;48.950;8.970;2022-11-11T07:20:37;21.90;;;12.35;;
5343;SDS011;2694;48.950;8.970;2022-11-11T07:23:05;21.08;;;11.23;;
5343;SDS011;2694;48.950;8.970;2022-11-11T07:25:33;27.33;;;12.27;;
5343;SDS011;2694;48.950;8.970;2022-11-11T07:28:00;23.25;;;11.07;;
5343;SDS011;2694;48.950;8.970;2022-11-11T07:30:28;22.58;;;10.90;;
5343;SDS011;2694;48.950;8.970;2022-11-11T07:32:55;22.15;;;9.45;;
5343;SDS011;2694;48.950;8.970;2022-11-11T07:35:23;17.48;;;9.68;;
5343;SDS011;2694;48.950;8.970;2022-11-11T07:37:51;14.52;;;7.90;;
5343;SDS011;2694;48.950;8.970;2022-11-11T07:40:19;13.68;;;7.70;;
5343;SDS011;2694;48.950;8.970;2022-11-11T07:42:46;15.73;;;7.75;;
5343;SDS011;2694;48.950;8.970;2022-11-11T07:45:13;15.45;;;8.18;;
5343;SDS011;2694;48.950;8.970;2022-11-11T07:47:44;16.73;;;8.80;;
5343;SDS011;2694;48.950;8.970;2022-11-11T07:50:11;18.27;;;9.10;;
5343;SDS011;2694;48.950;8.970;2022-11-11T07:52:38;23.03;;;10.70;;
5343;SDS011;2694;48.950;8.970;2022-11-11T07:55:08;30.55;;;12.32;;
5343;SDS011;2694;48.950;8.970;2022-11-11T07:57:35;29.42;;;13.13;;
5343;SDS011;2694;48.950;8.970;2022-11-11T08:00:03;21.95;;;11.05;;
5343;SDS011;2694;48.950;8.970;2022-11-11T08:02:31;13.30;;;6.65;;
5343;SDS011;2694;48.950;8.970;2022-11-11T08:04:58;12.30;;;7.03;;
5343;SDS011;2694;48.950;8.970;2022-11-11T08:07:26;10.90;;;5.55;;
5343;SDS011;2694;48.950;8.970;2022-11-11T08:09:53;10.75;;;6.10;;
5343;SDS011;2694;48.950;8.970;2022-11-11T08:12:22;12.70;;;7.75;;
5343;SDS011;2694;48.950;8.970;2022-11-11T08:15:06;20.98;;;10.98;;
5343;SDS011;2694;48.950;8.970;2022-11-11T08:17:37;17.17;;;8.93;;
5343;SDS011;2694;48.950;8.970;2022-11-11T08:20:05;16.60;;;8.80;;
5343;SDS011;2694;48.950;8.970;2022-11-11T08:22:36;20.23;;;9.80;;
5343;SDS011;2694;48.950;8.970;2022-11-11T08:25:05;14.25;;;6.85;;
5343;SDS011;2694;48.950;8.970;2022-11-11T08:27:35;15.45;;;7.85;;
5343;SDS011;2694;48.950;8.970;2022-11-11T08:30:03;15.63;;;8.07;;
5343;SDS011;2694;48.950;8.970;2022-11-11T08:32:31;21.40;;;8.23;;
5343;SDS011;2694;48.950;8.970;2022-11-11T08:34:59;13.43;;;7.85;;
5343;SDS011;2694;48.950;8.970;2022-11-11T08:37:26;13.82;;;8.13;;
5343;SDS011;2694;48.950;8.970;2022-11-11T08:39:53;10.65;;;6.97;;
5343;SDS011;2694;48.950;8.970;2022-11-11T08:42:21;9.68;;;6.20;;
5343;SDS011;2694;48.950;8.970;2022-11-11T08:44:49;8.90;;;5.68;;
5343;SDS011;2694;48.950;8.970;2022-11-11T08:47:16;9.60;;;5.82;;
5343;SDS011;2694;48.950;8.970;2022-11-11T08:49:46;9.73;;;5.60;;
5343;SDS011;2694;48.950;8.970;2022-11-11T08:52:15;7.00;;;4.70;;
5343;SDS011;2694;48.950;8.970;2022-11-11T08:54:42;7.18;;;4.75;;
5343;SDS011;2694;48.950;8.970;2022-11-11T08:57:09;5.18;;;4.40;;
5343;SDS011;2694;48.950;8.970;2022-11-11T08:59:37;6.35;;;4.90;;
5343;SDS011;2694;48.950;8.970;2022-11-11T09:02:05;9.43;;;5.28;;
5343;SDS011;2694;48.950;8.970;2022-11-11T09:04:35;7.63;;;5.00;;
5343;SDS011;2694;48.950;8.970;2022-11-11T09:07:03;9.45;;;5.38;;
5343;SDS011;2694;48.950;8.970;2022-11-11T09:09:30;8.48;;;4.65;;
5343;SDS011;2694;48.950;8.970;2022-11-11T09:11:57;8.65;;;5.00;;
5343;SDS011;2694;48.950;8.970;2022-11-11T09:14:24;6.93;;;4.72;;
5343;SDS011;2694;48.950;8.970;2022-11-11T09:16:52;7.80;;;4.00;;
5343;SDS011;2694;48.950;8.970;2022-11-11T09:19:21;8.50;;;4.32;;
5343;SDS011;2694;48.950;8.970;2022-11-11T09:21:49;8.50;;;3.88;;
5343;SDS011;2694;48.950;8.970;2022-11-11T09:24:16;7.80;;;4.15;;
5343;SDS011;2694;48.950;8.970;2022-11-11T09:26:45;5.30;;;3.65;;
5343;SDS011;2694;48.950;8.970;2022-11-11T09:29:13;9.93;;;4.30;;
5343;SDS011;2694;48.950;8.970;2022-11-11T09:31:40;8.75;;;5.20;;
5343;SDS011;2694;48.950;8.970;2022-11-11T09:34:07;8.85;;;4.70;;
5343;SDS011;2694;48.950;8.970;2022-11-11T09:36:36;7.32;;;4.10;;
5343;SDS011;2694;48.950;8.970;2022-11-11T09:39:03;8.15;;;3.90;;
5343;SDS011;2694;48.950;8.970;2022-11-11T09:41:34;9.98;;;4.03;;
5343;SDS011;2694;48.950;8.970;2022-11-11T09:44:08;8.75;;;4.20;;
5343;SDS011;2694;48.950;8.970;2022-11-11T09:46:50;5.30;;;4.00;;
5343;SDS011;2694;48.950;8.970;2022-11-11T09:49:30;6.70;;;4.35;;
5343;SDS011;2694;48.950;8.970;2022-11-11T09:52:13;6.00;;;4.22;;
5343;SDS011;2694;48.950;8.970;2022-11-11T09:54:45;5.03;;;3.88;;
5343;SDS011;2694;48.950;8.970;2022-11-11T09:57:18;8.98;;;4.25;;
5343;SDS011;2694;48.950;8.970;2022-11-11T09:59:53;7.30;;;4.20;;
5343;SDS011;2694;48.950;8.970;2022-11-11T10:02:25;12.50;;;3.90;;
5343;SDS011;2694;48.950;8.970;2022-11-11T10:04:59;11.98;;;5.07;;
5343;SDS011;2694;48.950;8.970;2022-11-11T10:07:35;9.63;;;4.28;;
5343;SDS011;2694;48.950;8.970;2022-11-11T10:10:16;10.83;;;5.07;;
5343;SDS011;2694;48.950;8.970;2022-11-11T10:12:50;9.65;;;3.92;;
5343;SDS011;2694;48.950;8.970;2022-11-11T10:15:21;8.60;;;4.30;;
5343;SDS011;2694;48.950;8.970;2022-11-11T10:18:01;8.95;;;4.10;;
5343;SDS011;2694;48.950;8.970;2022-11-11T10:20:38;9.77;;;4.57;;
5343;SDS011;2694;48.950;8.970;2022-11-11T10:23:12;8.32;;;4.20;;
5343;SDS011;2694;48.950;8.970;2022-11-11T10:25:41;7.90;;;4.37;;
5343;SDS011;2694;48.950;8.970;2022-11-11T10:28:16;7.60;;;3.70;;
5343;SDS011;2694;48.950;8.970;2022-11-11T10:30:46;9.00;;;4.00;;
5343;SDS011;2694;48.950;8.970;2022-11-11T10:33:16;10.00;;;4.03;;
5343;SDS011;2694;48.950;8.970;2022-11-11T10:35:46;8.48;;;4.10;;
5343;SDS011;2694;48.950;8.970;2022-11-11T10:38:22;9.20;;;3.88;;
5343;SDS011;2694;48.950;8.970;2022-11-11T10:41:00;6.38;;;4.05;;
5343;SDS011;2694;48.950;8.970;2022-11-11T10:43:34;7.20;;;4.55;;
5343;SDS011;2694;48.950;8.970;2022-11-11T10:46:02;6.88;;;4.00;;
5343;SDS011;2694;48.950;8.970;2022-11-11T10:48:37;8.77;;;4.22;;
5343;SDS011;2694;48.950;8.970;2022-11-11T10:51:08;7.72;;;4.50;;
5343;SDS011;2694;48.950;8.970;2022-11-11T10:53:39;9.57;;;4.65;;
5343;SDS011;2694;48.950;8.970;2022-11-11T10:56:17;11.60;;;5.40;;
5343;SDS011;2694;48.950;8.970;2022-11-11T10:58:48;10.63;;;4.80;;
5343;SDS011;2694;48.950;8.970;2022-11-11T11:01:21;10.80;;;4.90;;
5343;SDS011;2694;48.950;8.970;2022-11-11T11:03:56;12.40;;;5.20;;
5343;SDS011;2694;48.950;8.970;2022-11-11T11:06:29;9.35;;;4.43;;
5343;SDS011;2694;48.950;8.970;2022-11-11T11:09:05;8.98;;;4.68;;
5343;SDS011;2694;48.950;8.970;2022-11-11T11:11:40;6.85;;;4.10;;
5343;SDS011;2694;48.950;8.970;2022-11-11T11:14:14;6.57;;;4.30;;
5343;SDS011;2694;48.950;8.970;2022-11-11T11:16:46;13.50;;;4.70;;
5343;SDS011;2694;48.950;8.970;2022-11-11T11:19:20;9.52;;;4.70;;
5343;SDS011;2694;48.950;8.970;2022-11-11T11:21:51;13.23;;;5.00;;
5343;SDS011;2694;48.950;8.970;2022-11-11T11:24:22;8.02;;;5.10;;
5343;SDS011;2694;48.950;8.970;2022-11-11T11:26:51;10.35;;;5.40;;
5343;SDS011;2694;48.950;8.970;2022-11-11T11:29:24;8.65;;;4.68;;
5343;SDS011;2694;48.950;8.970;2022-11-11T11:31:53;7.68;;;4.93;;
5343;SDS011;2694;48.950;8.970;2022-11-11T11:34:22;6.47;;;4.50;;
5343;SDS011;2694;48.950;8.970;2022-11-11T11:37:15;7.20;;;4.70;;
5343;SDS011;2694;48.950;8.970;2022-11-11T11:39:45;6.22;;;4.22;;
5343;SDS011;2694;48.950;8.970;2022-11-11T11:42:29;10.70;;;5.32;;
5343;SDS011;2694;48.950;8.970;2022-11-11T11:45:13;6.10;;;4.30;;
5343;SDS011;2694;48.950;8.970;2022-11-11T11:47:50;9.23;;;5.15;;
5343;SDS011;2694;48.950;8.970;2022-11-11T11:50:41;12.55;;;5.10;;
5343;SDS011;2694;48.950;8.970;2022-11-11T11:53:26;9.40;;;5.10;;
5343;SDS011;2694;48.950;8.970;2022-11-11T11:56:23;10.15;;;5.30;;
5343;SDS011;2694;48.950;8.970;2022-11-11T11:58:59;7.50;;;5.22;;
5343;SDS011;2694;48.950;8.970;2022-11-11T12:01:34;12.75;;;5.00;;
5343;SDS011;2694;48.950;8.970;2022-11-11T12:07:10;12.10;;;5.05;;
5343;SDS011;2694;48.950;8.970;2022-11-11T12:09:46;11.30;;;5.50;;
5343;SDS011;2694;48.950;8.970;2022-11-11T12:12:31;11.47;;;5.60;;
5343;SDS011;2694;48.950;8.970;2022-11-11T12:15:11;10.57;;;5.43;;
5343;SDS011;2694;48.950;8.970;2022-11-11T12:17:50;11.60;;;5.95;;
5343;SDS011;2694;48.950;8.970;2022-11-11T12:20:24;10.43;;;6.22;;
5343;SDS011;2694;48.950;8.970;2022-11-11T12:22:59;13.82;;;6.22;;
5343;SDS011;2694;48.950;8.970;2022-11-11T12:25:38;11.35;;;6.15;;
5343;SDS011;2694;48.950;8.970;2022-11-11T12:28:20;8.75;;;5.90;;
5343;SDS011;2694;48.950;8.970;2022-11-11T12:30:59;10.65;;;5.55;;
5343;SDS011;2694;48.950;8.970;2022-11-11T12:33:47;11.50;;;5.50;;
5343;SDS011;2694;48.950;8.970;2022-11-11T12:36:26;11.43;;;6.05;;
5343;SDS011;2694;48.950;8.970;2022-11-11T12:39:02;10.23;;;6.00;;
5343;SDS011;2694;48.950;8.970;2022-11-11T12:41:39;7.82;;;5.60;;
5343;SDS011;2694;48.950;8.970;2022-11-11T12:44:24;12.02;;;5.70;;
5343;SDS011;2694;48.950;8.970;2022-11-11T12:47:10;9.68;;;5.63;;
5343;SDS011;2694;48.950;8.970;2022-11-11T12:49:52;11.02;;;6.30;;
5343;SDS011;2694;48.950;8.970;2022-11-11T12:52:28;10.48;;;6.10;;
5343;SDS011;2694;48.950;8.970;2022-11-11T12:55:08;11.65;;;5.30;;
5343;SDS011;2694;48.950;8.970;2022-11-11T12:57:53;9.55;;;4.95;;
5343;SDS011;2694;48.950;8.970;2022-11-11T13:00:31;9.05;;;5.20;;
5343;SDS011;2694;48.950;8.970;2022-11-11T13:03:14;8.63;;;5.18;;
5343;SDS011;2694;48.950;8.970;2022-11-11T13:05:54;9.65;;;5.50;;
5343;SDS011;2694;48.950;8.970;2022-11-11T13:08:43;7.90;;;5.00;;
5343;SDS011;2694;48.950;8.970;2022-11-11T13:11:25;14.00;;;5.60;;
5343;SDS011;2694;48.950;8.970;2022-11-11T13:14:03;14.02;;;4.90;;
5343;SDS011;2694;48.950;8.970;2022-11-11T13:16:44;7.25;;;4.80;;
5343;SDS011;2694;48.950;8.970;2022-11-11T13:19:14;9.20;;;5.20;;
5343;SDS011;2694;48.950;8.970;2022-11-11T13:21:50;8.75;;;4.60;;
5343;SDS011;2694;48.950;8.970;2022-11-11T13:24:21;8.80;;;4.65;;
5343;SDS011;2694;48.950;8.970;2022-11-11T13:26:50;8.05;;;4.63;;
5343;SDS011;2694;48.950;8.970;2022-11-11T13:32:19;11.20;;;5.05;;
5343;SDS011;2694;48.950;8.970;2022-11-11T13:34:51;8.80;;;4.47;;
5343;SDS011;2694;48.950;8.970;2022-11-11T13:37:20;8.23;;;4.53;;
5343;SDS011;2694;48.950;8.970;2022-11-11T13:39:52;12.50;;;4.50;;
5343;SDS011;2694;48.950;8.970;2022-11-11T13:42:25;9.50;;;5.00;;
5343;SDS011;2694;48.950;8.970;2022-11-11T13:44:57;8.45;;;4.88;;
5343;SDS011;2694;48.950;8.970;2022-11-11T13:47:32;11.57;;;5.53;;
5343;SDS011;2694;48.950;8.970;2022-11-11T13:50:03;8.50;;;4.57;;
5343;SDS011;2694;48.950;8.970;2022-11-11T13:52:34;8.98;;;5.10;;
5343;SDS011;2694;48.950;8.970;2022-11-11T13:55:03;7.38;;;4.55;;
5343;SDS011;2694;48.950;8.970;2022-11-11T13:57:41;6.55;;;4.28;;
5343;SDS011;2694;48.950;8.970;2022-11-11T14:00:23;10.10;;;4.50;;
5343;SDS011;2694;48.950;8.970;2022-11-11T14:09:12;6.78;;;4.72;;
5343;SDS011;2694;48.950;8.970;2022-11-11T14:12:22;6.40;;;4.13;;
5343;SDS011;2694;48.950;8.970;2022-11-11T14:15:02;10.23;;;4.50;;
5343;SDS011;2694;48.950;8.970;2022-11-11T14:17:32;7.25;;;4.60;;
5343;SDS011;2694;48.950;8.970;2022-11-11T14:26:19;10.70;;;4.40;;
5343;SDS011;2694;48.950;8.970;2022-11-11T14:28:51;14.73;;;5.45;;
5343;SDS011;2694;48.950;8.970;2022-11-11T14:31:33;10.35;;;4.50;;
5343;SDS011;2694;48.950;8.970;2022-11-11T14:34:13;8.35;;;4.07;;
5343;SDS011;2694;48.950;8.970;2022-11-11T14:36:49;8.07;;;4.03;;
5343;SDS011;2694;48.950;8.970;2022-11-11T14:39:26;9.25;;;4.53;;
5343;SDS011;2694;48.950;8.970;2022-11-11T14:42:03;8.15;;;3.47;;
5343;SDS011;2694;48.950;8.970;2022-11-11T14:44:37;10.57;;;4.50;;
5343;SDS011;2694;48.950;8.970;2022-11-11T14:50:00;8.85;;;5.28;;
5343;SDS011;2694;48.950;8.970;2022-11-11T14:52:34;7.43;;;4.30;;
5343;SDS011;2694;48.950;8.970;2022-11-11T14:55:12;10.20;;;4.78;;
5343;SDS011;2694;48.950;8.970;2022-11-11T14:57:47;9.50;;;4.70;;
5343;SDS011;2694;48.950;8.970;2022-11-11T15:00:16;9.77;;;4.55;;
5343;SDS011;2694;48.950;8.970;2022-11-11T15:02:46;9.43;;;4.57;;
5343;SDS011;2694;48.950;8.970;2022-11-11T15:05:20;10.90;;;5.70;;
5343;SDS011;2694;48.950;8.970;2022-11-11T15:08:00;13.25;;;6.43;;
5343;SDS011;2694;48.950;8.970;2022-11-11T15:10:42;9.35;;;5.30;;
5343;SDS011;2694;48.950;8.970;2022-11-11T15:16:50;9.80;;;4.32;;
5343;SDS011;2694;48.950;8.970;2022-11-11T15:19:29;6.90;;;4.30;;
5343;SDS011;2694;48.950;8.970;2022-11-11T15:22:12;8.20;;;3.90;;
5343;SDS011;2694;48.950;8.970;2022-11-11T15:24:55;6.28;;;4.20;;
5343;SDS011;2694;48.950;8.970;2022-11-11T15:27:35;8.00;;;4.38;;
5343;SDS011;2694;48.950;8.970;2022-11-11T15:30:13;5.90;;;3.70;;
5343;SDS011;2694;48.950;8.970;2022-11-11T15:32:46;7.25;;;3.85;;
5343;SDS011;2694;48.950;8.970;2022-11-11T15:35:32;8.10;;;3.67;;
5343;SDS011;2694;48.950;8.970;2022-11-11T15:38:08;9.25;;;3.80;;
5343;SDS011;2694;48.950;8.970;2022-11-11T15:40:43;7.05;;;4.05;;
5343;SDS011;2694;48.950;8.970;2022-11-11T15:43:13;6.22;;;3.97;;
5343;SDS011;2694;48.950;8.970;2022-11-11T15:45:45;9.57;;;4.50;;
5343;SDS011;2694;48.950;8.970;2022-11-11T15:48:17;9.53;;;4.10;;
5343;SDS011;2694;48.950;8.970;2022-11-11T15:50:46;7.38;;;4.18;;
5343;SDS011;2694;48.950;8.970;2022-11-11T15:53:18;7.95;;;4.45;;
5343;SDS011;2694;48.950;8.970;2022-11-11T15:55:51;8.27;;;4.05;;
5343;SDS011;2694;48.950;8.970;2022-11-11T15:58:24;7.23;;;4.63;;
5343;SDS011;2694;48.950;8.970;2022-11-11T16:00:54;9.20;;;4.90;;
5343;SDS011;2694;48.950;8.970;2022-11-11T16:03:24;7.97;;;4.43;;
5343;SDS011;2694;48.950;8.970;2022-11-11T16:05:55;6.85;;;4.25;;